Terminal Aerodrome Forecast
Issued by NWS

Home | Current Version | Previous Version | Text Only | Print | Product List | Glossary On
Versions: 1 2 3 4 5 6 7 8 9 10 11 12 13 14 15 16 17 18 19
000
FTUS41 KCAR 281100
TAFBHB
TAF
KBHB 281120Z 2812/2912 00000KT 1/2SM FG OVC003
     FM281300 16004KT 6SM BR OVC005
     FM281500 15007KT 3SM -SHRA OVC008
     FM282300 15010KT P6SM BKN008
     FM290200 16011KT 6SM BR BKN005
     FM290600 20011KT 2SM BR BKN005
      AMD LTD TO CLD VIS AND WIND=

USA.gov is the U.S. government's official web portal to all federal, state and local government web resources and services.